Terminal Aerodrome Forecast
Issued by NWS

Home | Current Version | Previous Version | Graphics & Text | Print | Product List | Glossary On
Versions: 1 2 3 4 5 6 7 8 9 10 11 12 13 14 15 16 17 18 19 20 21 22
000
FTUS43 KMPX 290715 AAA
TAFRWF
TAF AMD
KRWF 290715Z 2907/3006 33016G28KT P6SM OVC009
      TEMPO 2907/2909 4SM -SN BR OVC006
     FM290900 32023G32KT P6SM OVC012
     FM291400 32020G30KT P6SM BKN020
     FM291800 32017G25KT P6SM SCT025
     FM300200 33009KT P6SM SKC=

USA.gov is the U.S. government's official web portal to all federal, state and local government web resources and services.